createdAt,value
2017-10-04T00:01:17.941Z,9.50
2017-10-04T00:03:46.479Z,9.50
2017-10-04T00:06:14.164Z,9.50
2017-10-04T00:08:41.735Z,9.50
2017-10-04T00:11:10.127Z,9.50
2017-10-04T00:13:38.461Z,9.50
2017-10-04T00:16:06.065Z,9.50
2017-10-04T00:18:34.526Z,9.40
2017-10-04T00:21:02.101Z,9.40
2017-10-04T00:23:30.467Z,9.40
2017-10-04T00:25:58.788Z,9.50
2017-10-04T00:28:26.391Z,9.50
2017-10-04T00:30:54.755Z,9.50
2017-10-04T00:33:22.443Z,9.50
2017-10-04T00:35:50.963Z,9.40
2017-10-04T00:38:18.544Z,9.40
2017-10-04T00:40:46.232Z,9.40
2017-10-04T00:43:14.574Z,9.40
2017-10-04T00:45:42.166Z,9.40
2017-10-04T00:48:09.747Z,9.40
2017-10-04T00:50:38.096Z,9.40
2017-10-04T00:53:05.656Z,9.40
2017-10-04T00:55:33.248Z,9.40
2017-10-04T00:58:00.846Z,9.40
2017-10-04T01:00:28.407Z,9.40
2017-10-04T01:02:55.998Z,9.40
2017-10-04T01:05:23.597Z,9.40
2017-10-04T01:07:51.166Z,9.30
2017-10-04T01:10:18.730Z,9.20
2017-10-04T01:12:46.315Z,9.20
2017-10-04T01:15:13.895Z,9.10
2017-10-04T01:17:42.269Z,9.10
2017-10-04T01:20:09.824Z,9.10
2017-10-04T01:22:37.402Z,9.10
2017-10-04T01:25:05.732Z,9.10
2017-10-04T01:27:33.327Z,9.10
2017-10-04T01:30:01.851Z,9.10
2017-10-04T01:32:29.424Z,9.10
2017-10-04T01:34:57.019Z,9.10
2017-10-04T01:37:24.608Z,9.10
2017-10-04T01:39:52.163Z,9.10
2017-10-04T01:42:19.844Z,9.00
2017-10-04T01:44:47.418Z,9.00
2017-10-04T01:47:15.024Z,9.10
2017-10-04T01:49:43.346Z,9.10
2017-10-04T01:52:10.916Z,9.10
2017-10-04T01:54:38.535Z,9.30
2017-10-04T01:57:06.183Z,9.50
2017-10-04T01:59:34.540Z,9.50
2017-10-04T02:02:02.107Z,9.50
2017-10-04T02:04:29.711Z,9.60
2017-10-04T02:06:57.291Z,9.50
2017-10-04T02:09:24.851Z,9.50
2017-10-04T02:11:52.486Z,9.50
2017-10-04T02:14:20.042Z,9.40
2017-10-04T02:16:47.653Z,9.40
2017-10-04T02:19:15.231Z,9.30
2017-10-04T02:21:43.553Z,9.10
2017-10-04T02:24:11.155Z,9.10
2017-10-04T02:26:38.715Z,9.10
2017-10-04T02:29:07.079Z,9.20
2017-10-04T02:31:34.642Z,9.20
2017-10-04T02:34:02.227Z,9.00
2017-10-04T02:36:29.794Z,9.00
2017-10-04T02:38:57.391Z,8.90
2017-10-04T02:41:24.956Z,8.90
2017-10-04T02:43:52.515Z,8.90
2017-10-04T02:46:20.131Z,8.90
2017-10-04T02:48:47.725Z,8.90
2017-10-04T02:51:15.331Z,8.80
2017-10-04T02:53:43.672Z,8.80
2017-10-04T02:56:11.228Z,8.80
2017-10-04T02:58:38.899Z,8.70
2017-10-04T03:01:06.466Z,8.70
2017-10-04T03:03:34.088Z,8.60
2017-10-04T03:06:01.707Z,8.70
2017-10-04T03:08:30.037Z,8.70
2017-10-04T03:10:57.612Z,8.70
2017-10-04T03:13:25.195Z,8.70
2017-10-04T03:15:53.541Z,8.60
2017-10-04T03:18:21.219Z,8.60
2017-10-04T03:20:48.799Z,8.50
2017-10-04T03:23:17.134Z,8.50
2017-10-04T03:25:44.735Z,8.50
2017-10-04T03:28:13.059Z,8.50
2017-10-04T03:30:40.656Z,8.50
2017-10-04T03:33:09.010Z,8.50
2017-10-04T03:35:36.575Z,8.50
2017-10-04T03:38:04.164Z,8.50
2017-10-04T03:40:32.504Z,8.50
2017-10-04T03:43:00.176Z,8.50
2017-10-04T03:45:27.992Z,8.40
2017-10-04T03:47:55.567Z,8.40
2017-10-04T03:50:23.164Z,8.40
2017-10-04T03:52:50.722Z,8.40
2017-10-04T03:55:18.323Z,8.30
2017-10-04T03:57:45.896Z,8.30
2017-10-04T04:00:13.469Z,8.30
2017-10-04T04:02:41.059Z,8.30
2017-10-04T04:05:08.614Z,8.30
2017-10-04T04:07:36.195Z,8.30
2017-10-04T04:10:04.526Z,8.30
2017-10-04T04:12:32.263Z,8.30
2017-10-04T04:14:59.829Z,8.30
2017-10-04T04:17:27.441Z,8.30
2017-10-04T04:19:55.781Z,8.30
2017-10-04T04:22:23.347Z,8.30
2017-10-04T04:24:50.955Z,8.20
2017-10-04T04:27:18.523Z,8.20
2017-10-04T04:29:46.091Z,8.30
2017-10-04T04:32:13.681Z,8.20
2017-10-04T04:34:41.248Z,8.20
2017-10-04T04:37:08.842Z,8.20
2017-10-04T04:39:36.406Z,8.20
2017-10-04T04:42:03.999Z,8.10
2017-10-04T04:44:31.584Z,8.10
2017-10-04T04:46:59.319Z,8.10
2017-10-04T04:49:26.902Z,8.00
2017-10-04T04:51:54.459Z,8.10
2017-10-04T04:54:22.163Z,8.10
2017-10-04T04:56:49.726Z,8.10
2017-10-04T04:59:17.447Z,8.10
2017-10-04T05:01:45.007Z,8.10
2017-10-04T05:04:12.589Z,8.10
2017-10-04T05:06:40.996Z,8.00
2017-10-04T05:09:08.571Z,8.00
2017-10-04T05:11:36.436Z,8.00
2017-10-04T05:14:03.995Z,8.00
2017-10-04T05:16:31.560Z,7.90
2017-10-04T05:18:59.146Z,7.90
2017-10-04T05:21:26.754Z,7.90
2017-10-04T05:23:54.375Z,7.80
2017-10-04T05:26:22.705Z,7.80
2017-10-04T05:28:50.307Z,7.80
2017-10-04T05:31:17.868Z,7.80
2017-10-04T05:33:45.428Z,7.80
2017-10-04T05:36:13.789Z,7.80
2017-10-04T05:38:41.360Z,7.80
2017-10-04T05:41:09.719Z,7.80
2017-10-04T05:43:38.816Z,7.90
2017-10-04T05:46:06.415Z,7.90
2017-10-04T05:48:34.055Z,8.00
2017-10-04T05:51:02.395Z,8.00
2017-10-04T05:53:30.002Z,8.00
2017-10-04T05:55:58.366Z,8.10
2017-10-04T05:58:26.724Z,8.30
2017-10-04T06:00:54.286Z,8.30
2017-10-04T06:03:21.855Z,8.30
2017-10-04T06:05:49.482Z,8.20
2017-10-04T06:08:17.067Z,8.30
2017-10-04T06:10:44.743Z,8.30
2017-10-04T06:13:13.063Z,8.40
2017-10-04T06:15:40.686Z,8.40
2017-10-04T06:18:09.019Z,8.50
2017-10-04T06:20:36.579Z,8.50
2017-10-04T06:23:04.221Z,8.50
2017-10-04T06:25:31.864Z,8.50
2017-10-04T06:27:59.478Z,8.60
2017-10-04T06:30:27.050Z,8.60
2017-10-04T06:32:55.403Z,8.50
2017-10-04T06:35:23.007Z,8.50
2017-10-04T06:37:50.700Z,8.60
2017-10-04T06:40:18.316Z,8.70
2017-10-04T06:42:46.639Z,8.60
2017-10-04T06:45:14.311Z,8.50
2017-10-04T06:47:41.921Z,8.60
2017-10-04T06:50:09.509Z,8.60
2017-10-04T06:52:37.130Z,8.60
2017-10-04T06:55:05.463Z,8.70
2017-10-04T06:57:33.046Z,8.70
2017-10-04T07:00:00.615Z,8.90
2017-10-04T07:02:28.938Z,8.90
2017-10-04T07:04:56.528Z,8.90
2017-10-04T07:07:24.102Z,9.00
2017-10-04T07:09:51.696Z,9.00
2017-10-04T07:12:19.287Z,9.20
2017-10-04T07:14:46.855Z,9.30
2017-10-04T07:17:14.441Z,9.30
2017-10-04T07:19:42.774Z,9.00
2017-10-04T07:22:10.355Z,9.00
2017-10-04T07:24:37.942Z,9.10
2017-10-04T07:27:06.290Z,9.30
2017-10-04T07:29:33.855Z,9.30
2017-10-04T07:32:02.946Z,9.20
2017-10-04T07:34:30.540Z,9.20
2017-10-04T07:36:58.095Z,9.30
2017-10-04T07:39:26.556Z,9.50
2017-10-04T07:41:54.118Z,9.50
2017-10-04T07:44:22.442Z,9.80
2017-10-04T07:46:50.028Z,9.80
2017-10-04T07:49:17.591Z,9.80
2017-10-04T07:51:45.187Z,9.50
2017-10-04T07:54:13.519Z,9.50
2017-10-04T07:56:41.119Z,9.50
2017-10-04T07:59:09.528Z,10.00
2017-10-04T08:01:37.100Z,10.00
2017-10-04T08:04:04.691Z,10.00
2017-10-04T08:06:32.371Z,10.20
2017-10-04T08:09:00.894Z,10.40
2017-10-04T08:11:28.479Z,10.40
2017-10-04T08:13:56.066Z,10.30
2017-10-04T08:16:24.409Z,10.60
2017-10-04T08:18:52.032Z,10.60
2017-10-04T08:21:19.687Z,10.50
2017-10-04T08:23:47.305Z,10.30
2017-10-04T08:26:14.992Z,10.30
2017-10-04T08:28:43.326Z,10.70
2017-10-04T08:31:11.071Z,10.60
2017-10-04T08:33:38.733Z,10.80
2017-10-04T08:36:06.295Z,10.90
2017-10-04T08:38:33.916Z,11.10
2017-10-04T08:41:01.495Z,11.00
2017-10-04T08:43:29.229Z,11.30
2017-10-04T08:45:57.559Z,11.80
2017-10-04T08:48:38.135Z,11.70
2017-10-04T08:51:05.707Z,12.60
2017-10-04T08:53:33.262Z,12.70
2017-10-04T08:56:00.863Z,12.60
2017-10-04T08:58:28.419Z,12.40
2017-10-04T09:00:55.998Z,12.30
2017-10-04T09:03:23.575Z,12.30
2017-10-04T09:06:03.306Z,12.40
2017-10-04T09:08:30.922Z,12.50
2017-10-04T09:10:59.246Z,12.70
2017-10-04T09:13:26.847Z,12.60
2017-10-04T09:15:55.172Z,12.90
2017-10-04T09:18:22.822Z,12.80
2017-10-04T09:20:50.391Z,12.80
2017-10-04T09:23:17.971Z,13.00
2017-10-04T09:25:45.600Z,13.30
2017-10-04T09:28:13.188Z,13.50
2017-10-04T09:30:40.743Z,13.70
2017-10-04T09:33:08.342Z,13.80
2017-10-04T09:35:36.736Z,14.50
2017-10-04T09:38:04.343Z,14.50
2017-10-04T09:40:31.911Z,14.20
2017-10-04T09:43:00.327Z,14.40
2017-10-04T09:45:28.679Z,14.90
2017-10-04T09:47:56.255Z,14.90
2017-10-04T09:50:24.626Z,15.20
2017-10-04T09:52:52.967Z,14.70
2017-10-04T09:55:20.567Z,14.60
2017-10-04T09:57:48.904Z,14.10
2017-10-04T10:00:16.491Z,14.00
2017-10-04T10:02:44.095Z,14.10
2017-10-04T10:05:11.655Z,14.10
2017-10-04T10:07:39.355Z,14.50
2017-10-04T10:10:06.915Z,15.30
2017-10-04T10:12:34.530Z,15.90
2017-10-04T10:15:02.292Z,16.70
2017-10-04T10:17:32.693Z,17.00
2017-10-04T10:19:57.856Z,17.80
2017-10-04T10:22:25.426Z,18.80
2017-10-04T10:24:53.010Z,18.90
2017-10-04T10:27:21.374Z,20.20
2017-10-04T10:29:49.724Z,20.40
2017-10-04T10:32:17.355Z,20.40
2017-10-04T10:34:44.927Z,20.80
2017-10-04T10:37:12.521Z,20.60
2017-10-04T10:39:40.079Z,19.50
2017-10-04T10:42:07.681Z,17.70
2017-10-04T10:44:35.235Z,18.10
2017-10-04T10:47:02.811Z,18.40
2017-10-04T10:49:30.415Z,18.20
2017-10-04T10:51:57.988Z,17.70
2017-10-04T10:54:26.343Z,16.80
2017-10-04T10:56:53.896Z,16.80
2017-10-04T10:59:21.517Z,16.50
2017-10-04T11:01:49.082Z,16.30
2017-10-04T11:04:16.651Z,15.90
2017-10-04T11:06:44.267Z,16.00
2017-10-04T11:09:12.588Z,16.10
2017-10-04T11:11:40.182Z,16.10
2017-10-04T11:14:08.542Z,16.10
2017-10-04T11:16:36.138Z,16.10
2017-10-04T11:19:04.452Z,16.10
2017-10-04T11:21:32.055Z,16.10
2017-10-04T11:24:00.415Z,16.40
2017-10-04T11:26:27.988Z,16.40
2017-10-04T11:28:56.351Z,16.80
2017-10-04T11:31:23.913Z,16.70
2017-10-04T11:33:51.536Z,16.70
2017-10-04T11:36:19.128Z,17.60
2017-10-04T11:38:46.742Z,18.10
2017-10-04T11:41:14.320Z,17.50
2017-10-04T11:43:41.961Z,17.30
2017-10-04T11:46:09.520Z,16.70
2017-10-04T11:48:37.103Z,16.40
2017-10-04T11:51:04.704Z,16.30
2017-10-04T11:53:33.044Z,16.50
2017-10-04T11:56:00.659Z,16.40
2017-10-04T11:58:28.231Z,16.30
2017-10-04T12:00:55.939Z,16.30
2017-10-04T12:03:23.753Z,16.10
2017-10-04T12:05:51.339Z,16.30
2017-10-04T12:08:18.946Z,16.10
2017-10-04T12:10:47.297Z,16.90
2017-10-04T12:13:14.860Z,16.90
2017-10-04T12:15:42.455Z,17.00
2017-10-04T12:18:10.023Z,17.20
2017-10-04T12:20:37.604Z,17.00
2017-10-04T12:23:05.169Z,17.00
2017-10-04T12:25:32.782Z,16.80
2017-10-04T12:28:00.336Z,17.20
2017-10-04T12:30:28.710Z,17.70
2017-10-04T12:32:57.059Z,17.50
2017-10-04T12:35:24.615Z,17.50
2017-10-04T12:37:52.199Z,17.20
2017-10-04T12:40:20.539Z,19.60
2017-10-04T12:42:48.129Z,19.60
2017-10-04T12:45:16.501Z,18.10
2017-10-04T12:47:44.071Z,18.00
2017-10-04T12:50:12.435Z,17.60
2017-10-04T12:52:40.012Z,17.60
2017-10-04T12:55:07.610Z,19.10
2017-10-04T12:57:35.176Z,18.90
2017-10-04T13:00:02.778Z,18.70
2017-10-04T13:02:31.114Z,17.90
2017-10-04T13:04:58.691Z,17.90
2017-10-04T13:07:26.286Z,18.70
2017-10-04T13:09:53.851Z,19.00
2017-10-04T13:12:21.451Z,18.50
2017-10-04T13:14:49.011Z,18.90
2017-10-04T13:17:16.610Z,19.20
2017-10-04T13:19:44.980Z,19.00
2017-10-04T13:22:13.355Z,18.50
2017-10-04T13:24:41.676Z,18.40
2017-10-04T13:27:09.255Z,18.40
2017-10-04T13:29:36.863Z,18.60
2017-10-04T13:32:05.192Z,19.00
2017-10-04T13:34:32.839Z,19.00
2017-10-04T13:37:00.408Z,19.70
2017-10-04T13:39:28.020Z,20.60
2017-10-04T13:41:55.620Z,20.60
2017-10-04T13:44:23.179Z,21.00
2017-10-04T13:46:50.788Z,20.40
2017-10-04T13:49:19.102Z,19.00
2017-10-04T13:51:46.700Z,18.90
2017-10-04T13:54:14.295Z,19.30
2017-10-04T13:56:41.915Z,18.70
2017-10-04T13:59:09.592Z,19.50
2017-10-04T14:01:37.967Z,19.90
2017-10-04T14:04:06.341Z,19.40
2017-10-04T14:06:33.895Z,19.30
2017-10-04T14:09:01.555Z,19.30
2017-10-04T14:11:29.144Z,18.90
2017-10-04T14:13:56.706Z,18.50
2017-10-04T14:16:24.315Z,18.80
2017-10-04T14:18:51.902Z,19.10
2017-10-04T14:21:20.261Z,17.70
2017-10-04T14:23:47.887Z,17.70
2017-10-04T14:26:15.501Z,17.50
2017-10-04T14:28:43.828Z,18.90
2017-10-04T14:31:11.407Z,18.90
2017-10-04T14:33:38.989Z,18.40
2017-10-04T14:36:07.343Z,18.40
2017-10-04T14:38:34.947Z,18.40
2017-10-04T14:41:02.553Z,18.30
2017-10-04T14:43:30.138Z,17.90
2017-10-04T14:45:58.554Z,17.30
2017-10-04T14:48:26.218Z,17.20
2017-10-04T14:50:53.867Z,17.90
2017-10-04T14:53:21.502Z,18.70
2017-10-04T14:55:49.911Z,18.20
2017-10-04T14:58:17.519Z,18.20
2017-10-04T15:00:45.140Z,17.40
2017-10-04T15:03:12.704Z,17.70
2017-10-04T15:05:40.288Z,17.50
2017-10-04T15:08:07.860Z,18.00
2017-10-04T15:10:35.464Z,17.30
2017-10-04T15:13:03.033Z,17.20
2017-10-04T15:15:30.603Z,16.60
2017-10-04T15:17:58.351Z,16.10
2017-10-04T15:20:25.987Z,16.10
2017-10-04T15:22:53.652Z,15.90
2017-10-04T15:25:21.220Z,15.90
2017-10-04T15:27:48.828Z,15.90
2017-10-04T15:30:17.147Z,15.50
2017-10-04T15:32:44.715Z,15.60
2017-10-04T15:35:12.307Z,15.50
2017-10-04T15:37:39.870Z,15.50
2017-10-04T15:40:07.487Z,15.50
2017-10-04T15:42:35.056Z,15.40
2017-10-04T15:45:02.661Z,15.50
2017-10-04T15:47:30.212Z,15.40
2017-10-04T15:49:57.840Z,15.40
2017-10-04T15:52:25.424Z,15.70
2017-10-04T15:54:53.072Z,15.80
2017-10-04T15:57:20.680Z,15.60
2017-10-04T15:59:49.019Z,15.60
2017-10-04T16:02:16.622Z,15.50
2017-10-04T16:04:45.099Z,15.80
2017-10-04T16:07:13.428Z,15.70
2017-10-04T16:09:41.055Z,15.60
2017-10-04T16:12:08.769Z,15.40
2017-10-04T16:14:36.403Z,15.20
2017-10-04T16:17:04.041Z,15.10
2017-10-04T16:19:31.639Z,15.40
2017-10-04T16:21:59.221Z,15.80
2017-10-04T16:24:27.669Z,15.60
2017-10-04T16:26:55.263Z,15.60
2017-10-04T16:29:23.614Z,15.80
2017-10-04T16:31:51.207Z,15.70
2017-10-04T16:34:19.546Z,15.70
2017-10-04T16:36:47.227Z,15.70
2017-10-04T16:39:14.822Z,15.70
2017-10-04T16:41:42.449Z,15.70
2017-10-04T16:44:10.064Z,15.50
2017-10-04T16:46:37.637Z,15.10
2017-10-04T16:49:05.255Z,15.10
2017-10-04T16:51:32.849Z,15.30
2017-10-04T16:54:00.411Z,15.10
2017-10-04T16:56:28.032Z,15.20
2017-10-04T16:58:55.600Z,14.90
2017-10-04T17:01:23.175Z,15.00
2017-10-04T17:03:50.760Z,14.90
2017-10-04T17:06:18.335Z,14.90
2017-10-04T17:08:45.941Z,14.70
2017-10-04T17:11:13.515Z,14.70
2017-10-04T17:13:41.132Z,14.60
2017-10-04T17:16:09.459Z,14.50
2017-10-04T17:18:37.019Z,14.50
2017-10-04T17:21:04.680Z,14.50
2017-10-04T17:23:32.248Z,14.10
2017-10-04T17:25:59.864Z,14.50
2017-10-04T17:28:27.443Z,14.80
2017-10-04T17:30:55.065Z,14.70
2017-10-04T17:33:22.708Z,14.80
2017-10-04T17:35:51.056Z,14.80
2017-10-04T17:38:18.648Z,14.80
2017-10-04T17:40:47.019Z,14.70
2017-10-04T17:43:15.504Z,14.70
2017-10-04T17:45:43.937Z,14.70
2017-10-04T17:48:11.514Z,14.70
2017-10-04T17:50:39.240Z,14.50
2017-10-04T17:53:06.816Z,14.50
2017-10-04T17:55:34.422Z,14.60
2017-10-04T17:58:02.906Z,14.60
2017-10-04T18:00:31.260Z,14.50
2017-10-04T18:02:58.863Z,14.50
2017-10-04T18:05:26.404Z,14.50
2017-10-04T18:07:54.767Z,14.60
2017-10-04T18:10:23.084Z,14.40
2017-10-04T18:12:50.693Z,14.40
2017-10-04T18:15:18.276Z,14.30
2017-10-04T18:17:46.658Z,13.80
2017-10-04T18:20:15.103Z,13.80
2017-10-04T18:22:42.691Z,13.60
2017-10-04T18:25:11.090Z,13.70
2017-10-04T18:27:38.683Z,13.60
2017-10-04T18:30:06.312Z,13.60
2017-10-04T18:32:33.978Z,13.80
2017-10-04T18:35:01.626Z,13.90
2017-10-04T18:37:29.288Z,13.90
2017-10-04T18:39:56.863Z,14.10
2017-10-04T18:42:24.494Z,11.50
2017-10-04T18:44:52.196Z,14.20
2017-10-04T18:47:19.809Z,14.10
2017-10-04T18:49:48.154Z,13.90
2017-10-04T18:52:15.722Z,13.90
2017-10-04T18:54:44.211Z,13.80
2017-10-04T18:57:12.553Z,13.80
2017-10-04T18:59:40.151Z,13.80
2017-10-04T19:02:08.555Z,13.70
2017-10-04T19:04:36.214Z,13.70
2017-10-04T19:07:03.824Z,13.70
2017-10-04T19:09:31.397Z,13.70
2017-10-04T19:11:59.860Z,13.40
2017-10-04T19:14:27.495Z,13.40
2017-10-04T19:16:55.269Z,13.20
2017-10-04T19:19:22.842Z,13.20
2017-10-04T19:21:51.244Z,13.40
2017-10-04T19:24:19.587Z,13.40
2017-10-04T19:26:47.159Z,13.40
2017-10-04T19:29:15.550Z,13.30
2017-10-04T19:31:43.885Z,13.30
2017-10-04T19:34:11.504Z,13.30
2017-10-04T19:36:39.073Z,13.40
2017-10-04T19:39:06.632Z,13.40
2017-10-04T19:41:34.230Z,13.40
2017-10-04T19:44:01.815Z,13.50
2017-10-04T19:46:30.193Z,13.50
2017-10-04T19:48:58.536Z,13.60
2017-10-04T19:51:26.193Z,13.60
2017-10-04T19:53:53.796Z,13.60
2017-10-04T19:56:22.132Z,13.40
2017-10-04T19:58:49.923Z,13.40
2017-10-04T20:01:17.596Z,13.20
2017-10-04T20:03:46.055Z,13.00
2017-10-04T20:06:13.653Z,12.90
2017-10-04T20:08:41.284Z,13.00
2017-10-04T20:11:08.875Z,13.00
2017-10-04T20:13:36.501Z,13.20
2017-10-04T20:16:04.108Z,13.00
2017-10-04T20:18:31.709Z,12.90
2017-10-04T20:20:59.323Z,13.30
2017-10-04T20:23:26.988Z,13.30
2017-10-04T20:25:54.580Z,13.30
2017-10-04T20:28:22.200Z,13.20
2017-10-04T20:30:49.768Z,13.10
2017-10-04T20:33:17.369Z,12.90
2017-10-04T20:35:44.986Z,12.80
2017-10-04T20:38:12.640Z,12.80
2017-10-04T20:40:40.196Z,12.90
2017-10-04T20:43:07.811Z,12.90
2017-10-04T20:45:35.387Z,12.90
2017-10-04T20:48:02.983Z,12.90
2017-10-04T20:50:30.571Z,13.10
2017-10-04T20:52:58.127Z,13.20
2017-10-04T20:55:25.728Z,13.20
2017-10-04T20:57:54.061Z,13.10
2017-10-04T21:00:21.683Z,13.10
2017-10-04T21:02:49.256Z,13.10
2017-10-04T21:05:16.919Z,13.10
2017-10-04T21:07:44.508Z,13.10
2017-10-04T21:10:12.105Z,13.10
2017-10-04T21:12:39.673Z,13.10
2017-10-04T21:15:07.240Z,12.90
2017-10-04T21:17:34.895Z,13.00
2017-10-04T21:20:02.567Z,13.00
2017-10-04T21:22:30.155Z,13.00
2017-10-04T21:24:57.723Z,13.00
2017-10-04T21:27:25.304Z,13.00
2017-10-04T21:29:53.635Z,13.00
2017-10-04T21:32:21.254Z,12.90
2017-10-04T21:34:48.825Z,13.00
2017-10-04T21:37:16.417Z,13.00
2017-10-04T21:39:44.048Z,13.00
2017-10-04T21:42:11.623Z,13.00
2017-10-04T21:44:39.211Z,12.80
2017-10-04T21:47:06.787Z,12.90
2017-10-04T21:49:35.180Z,12.80
2017-10-04T21:52:03.555Z,12.90
2017-10-04T21:54:31.894Z,12.90
2017-10-04T21:56:59.476Z,12.90
2017-10-04T21:59:27.036Z,12.80
2017-10-04T22:01:55.507Z,12.90
2017-10-04T22:04:23.219Z,12.90
2017-10-04T22:06:50.808Z,12.90
2017-10-04T22:09:18.407Z,13.00
2017-10-04T22:11:46.736Z,13.00
2017-10-04T22:14:14.360Z,13.00
2017-10-04T22:16:41.939Z,12.90
2017-10-04T22:19:09.521Z,12.80
2017-10-04T22:21:37.139Z,12.70
2017-10-04T22:24:04.789Z,12.60
2017-10-04T22:26:32.469Z,12.60
2017-10-04T22:29:00.030Z,12.50
2017-10-04T22:31:27.622Z,12.60
2017-10-04T22:33:55.177Z,12.60
2017-10-04T22:36:23.005Z,12.50
2017-10-04T22:38:50.723Z,12.20
2017-10-04T22:41:18.335Z,12.00
2017-10-04T22:43:45.896Z,11.90
2017-10-04T22:46:13.520Z,11.80
2017-10-04T22:48:41.844Z,12.00
2017-10-04T22:51:09.482Z,12.00
2017-10-04T22:53:37.347Z,12.20
2017-10-04T22:56:04.905Z,12.20
2017-10-04T22:58:32.571Z,12.30
2017-10-04T23:01:00.171Z,12.30
2017-10-04T23:03:27.747Z,12.30
2017-10-04T23:05:56.135Z,11.90
2017-10-04T23:08:24.477Z,11.80
2017-10-04T23:10:52.203Z,11.80
2017-10-04T23:13:19.884Z,11.70
2017-10-04T23:15:47.440Z,11.90
2017-10-04T23:18:15.027Z,12.00
2017-10-04T23:20:42.586Z,12.00
2017-10-04T23:23:10.188Z,12.00
2017-10-04T23:25:37.765Z,11.90
2017-10-04T23:28:05.366Z,11.90
2017-10-04T23:30:33.893Z,12.00
2017-10-04T23:33:01.448Z,11.90
2017-10-04T23:35:29.078Z,12.00
2017-10-04T23:37:57.415Z,12.10
2017-10-04T23:40:24.999Z,12.10
2017-10-04T23:42:52.712Z,12.10
2017-10-04T23:45:20.358Z,12.10
2017-10-04T23:47:47.943Z,12.10
2017-10-04T23:50:15.499Z,12.10
2017-10-04T23:52:43.198Z,12.10
2017-10-04T23:55:10.756Z,12.10
2017-10-04T23:57:38.343Z,12.10
